Terminal Aerodrome Forecast
Issued by NWS Upton, NY

Home | Current Version | Previous Version | Text Only | Print | Product List | Glossary On
Versions: 1 2 3 4 5 6 7 8 9 10 11 12 13 14 15 16 17 18 19 20 21 22 23 24 25 26 27 28 29 30 31 32 33 34 35 36 37 38
000
FTUS41 KOKX 271935 AAB
TAFBDR
TAF AMD
KBDR 271935Z 2720/2818 12008KT P6SM SCT010 BKN025
      TEMPO 2720/2722 SCT025 BKN035
     FM272200 14007KT 5SM BR BKN009 OVC012
     FM280100 13005KT 1SM -DZ BR OVC005
     FM280500 VRB04KT 1/2SM -DZ FG OVC003
     FM281600 25007KT P6SM SCT006 BKN035=

USA.gov is the U.S. government's official web portal to all federal, state and local government web resources and services.